createdAt,value
2023-09-20T00:02:15.993Z,16.01
2023-09-20T00:04:45.201Z,16.00
2023-09-20T00:07:13.788Z,15.96
2023-09-20T00:09:42.857Z,15.93
2023-09-20T00:12:11.324Z,15.88
2023-09-20T00:14:39.587Z,15.86
2023-09-20T00:17:07.999Z,15.86
2023-09-20T00:19:37.176Z,15.85
2023-09-20T00:22:05.378Z,15.84
2023-09-20T00:24:36.104Z,15.83
2023-09-20T00:27:04.185Z,15.83
2023-09-20T00:29:32.176Z,15.82
2023-09-20T00:32:00.193Z,15.81
2023-09-20T00:34:29.014Z,15.77
2023-09-20T00:36:56.957Z,15.79
2023-09-20T00:39:25.607Z,15.77
2023-09-20T00:41:53.652Z,15.80
2023-09-20T00:44:21.686Z,15.81
2023-09-20T00:46:49.673Z,15.80
2023-09-20T00:49:17.655Z,15.80
2023-09-20T00:51:49.694Z,15.80
2023-09-20T00:54:18.131Z,15.80
2023-09-20T00:56:46.659Z,15.79
2023-09-20T00:59:14.752Z,15.80
2023-09-20T01:01:43.799Z,15.82
2023-09-20T01:04:12.860Z,15.83
2023-09-20T01:06:43.679Z,15.83
2023-09-20T01:09:12.357Z,15.84
2023-09-20T01:11:40.389Z,15.82
2023-09-20T01:14:08.386Z,15.80
2023-09-20T01:16:36.417Z,15.75
2023-09-20T01:19:07.297Z,15.73
2023-09-20T01:21:49.180Z,15.73
2023-09-20T01:24:19.126Z,15.71
2023-09-20T01:26:50.318Z,15.68
2023-09-20T01:29:18.337Z,15.67
2023-09-20T01:31:46.683Z,15.66
2023-09-20T01:34:14.620Z,15.63
2023-09-20T01:36:43.319Z,15.59
2023-09-20T01:39:11.706Z,15.56
2023-09-20T01:41:39.756Z,15.51
2023-09-20T01:44:09.487Z,15.46
2023-09-20T01:46:39.194Z,15.42
2023-09-20T01:49:08.064Z,15.36
2023-09-20T01:51:36.388Z,15.30
2023-09-20T01:54:06.237Z,15.26
2023-09-20T01:56:34.241Z,15.21
2023-09-20T01:59:02.322Z,15.19
2023-09-20T02:01:30.349Z,15.17
2023-09-20T02:03:58.494Z,15.17
2023-09-20T02:06:26.567Z,15.14
2023-09-20T02:08:55.849Z,15.11
2023-09-20T02:11:24.154Z,15.06
2023-09-20T02:13:52.224Z,15.01
2023-09-20T02:16:20.212Z,14.96
2023-09-20T02:18:50.656Z,14.97
2023-09-20T02:21:18.676Z,14.97
2023-09-20T02:23:47.208Z,14.97
2023-09-20T02:26:15.329Z,14.90
2023-09-20T02:28:43.509Z,14.89
2023-09-20T02:31:11.807Z,14.87
2023-09-20T02:33:41.000Z,14.86
2023-09-20T02:36:09.324Z,14.84
2023-09-20T02:38:39.666Z,14.82
2023-09-20T02:41:07.750Z,14.82
2023-09-20T02:43:35.677Z,14.78
2023-09-20T02:46:07.820Z,14.73
2023-09-20T02:48:37.074Z,14.72
2023-09-20T02:51:05.376Z,14.71
2023-09-20T02:53:35.900Z,14.68
2023-09-20T02:56:06.929Z,14.64
2023-09-20T02:58:34.980Z,14.62
2023-09-20T03:01:04.680Z,14.62
2023-09-20T03:03:33.115Z,14.59
2023-09-20T03:06:10.420Z,14.55
2023-09-20T03:08:44.367Z,14.51
2023-09-20T03:11:21.583Z,14.50
2023-09-20T03:13:49.746Z,14.48
2023-09-20T03:16:21.220Z,14.47
2023-09-20T03:18:52.412Z,14.44
2023-09-20T03:21:21.771Z,14.43
2023-09-20T03:23:49.712Z,14.44
2023-09-20T03:26:18.608Z,14.43
2023-09-20T03:28:48.965Z,14.42
2023-09-20T03:31:21.373Z,14.43
2023-09-20T03:33:50.588Z,14.44
2023-09-20T03:36:18.641Z,14.42
2023-09-20T03:38:46.843Z,14.42
2023-09-20T03:41:14.990Z,14.41
2023-09-20T03:43:43.313Z,14.41
2023-09-20T03:46:12.278Z,14.41
2023-09-20T03:48:40.431Z,14.40
2023-09-20T03:51:20.460Z,14.40
2023-09-20T03:53:51.932Z,14.35
2023-09-20T03:56:20.207Z,14.31
2023-09-20T03:58:48.112Z,14.25
2023-09-20T04:01:16.443Z,14.24
2023-09-20T04:03:44.640Z,14.25
2023-09-20T04:06:12.888Z,14.23
2023-09-20T04:08:41.660Z,14.23
2023-09-20T04:11:09.806Z,14.23
2023-09-20T04:13:37.799Z,14.23
2023-09-20T04:16:05.948Z,14.24
2023-09-20T04:18:34.538Z,14.21
2023-09-20T04:21:02.793Z,14.19
2023-09-20T04:23:30.935Z,14.19
2023-09-20T04:26:00.292Z,14.20
2023-09-20T04:28:28.300Z,14.18
2023-09-20T04:30:56.267Z,14.12
2023-09-20T04:33:26.181Z,14.10
2023-09-20T04:35:54.733Z,14.12
2023-09-20T04:38:22.763Z,14.15
2023-09-20T04:40:50.692Z,14.14
2023-09-20T04:43:18.564Z,14.16
2023-09-20T04:45:46.588Z,14.18
2023-09-20T04:48:15.521Z,14.18
2023-09-20T04:50:43.532Z,14.18
2023-09-20T04:53:11.535Z,14.20
2023-09-20T04:55:39.732Z,14.20
2023-09-20T04:58:08.766Z,14.19
2023-09-20T05:00:39.629Z,14.17
2023-09-20T05:03:07.675Z,14.13
2023-09-20T05:05:35.946Z,14.08
2023-09-20T05:08:04.617Z,14.10
2023-09-20T05:10:33.340Z,14.06
2023-09-20T05:13:01.352Z,14.06
2023-09-20T05:15:29.377Z,14.05
2023-09-20T05:17:58.061Z,14.06
2023-09-20T05:20:27.014Z,14.09
2023-09-20T05:22:55.195Z,14.11
2023-09-20T05:25:27.311Z,14.14
2023-09-20T05:27:56.783Z,14.17
2023-09-20T05:30:24.817Z,14.16
2023-09-20T05:32:54.413Z,14.20
2023-09-20T05:35:22.511Z,14.22
2023-09-20T05:37:50.910Z,14.27
2023-09-20T05:40:21.666Z,14.28
2023-09-20T05:42:52.793Z,14.29
2023-09-20T05:45:25.781Z,14.30
2023-09-20T05:47:53.895Z,14.31
2023-09-20T05:50:25.834Z,14.29
2023-09-20T05:52:54.335Z,14.29
2023-09-20T05:55:25.356Z,14.29
2023-09-20T05:57:53.276Z,14.27
2023-09-20T06:00:24.542Z,14.28
2023-09-20T06:02:52.641Z,14.27
2023-09-20T06:05:26.780Z,14.28
2023-09-20T06:08:00.034Z,14.26
2023-09-20T06:10:28.188Z,14.27
2023-09-20T06:12:56.365Z,14.21
2023-09-20T06:15:25.118Z,14.21
2023-09-20T06:17:54.270Z,14.23
2023-09-20T06:20:22.290Z,14.22
2023-09-20T06:22:55.412Z,14.21
2023-09-20T06:25:24.633Z,14.25
2023-09-20T06:27:56.097Z,14.27
2023-09-20T06:30:25.137Z,14.29
2023-09-20T06:32:53.585Z,14.31
2023-09-20T06:35:23.179Z,14.37
2023-09-20T06:37:51.734Z,14.40
2023-09-20T06:40:36.459Z,14.43
2023-09-20T06:43:04.462Z,14.48
2023-09-20T06:45:32.371Z,14.48
2023-09-20T06:48:00.822Z,14.48
2023-09-20T06:50:29.207Z,14.54
2023-09-20T06:52:57.208Z,14.59
2023-09-20T06:55:27.686Z,14.68
2023-09-20T06:58:08.905Z,14.72
2023-09-20T07:00:44.283Z,14.78
2023-09-20T07:03:13.021Z,14.82
2023-09-20T07:05:41.123Z,14.87
2023-09-20T07:08:10.752Z,14.96
2023-09-20T07:10:44.216Z,15.04
2023-09-20T07:13:12.444Z,15.12
2023-09-20T07:15:41.614Z,15.20
2023-09-20T07:18:14.542Z,15.27
2023-09-20T07:20:45.324Z,15.34
2023-09-20T07:23:17.912Z,15.38
2023-09-20T07:25:45.983Z,15.46
2023-09-20T07:28:13.949Z,15.55
2023-09-20T07:30:47.127Z,15.59
2023-09-20T07:33:26.557Z,15.65
2023-09-20T07:36:43.144Z,15.68
2023-09-20T07:39:24.276Z,15.73
2023-09-20T07:41:55.534Z,15.76
2023-09-20T07:44:26.597Z,15.85
2023-09-20T07:46:59.735Z,15.94
2023-09-20T07:49:28.098Z,16.02
2023-09-20T07:51:57.234Z,16.09
2023-09-20T07:54:25.265Z,16.15
2023-09-20T07:56:55.070Z,16.21
2023-09-20T07:59:26.250Z,16.30
2023-09-20T08:01:55.524Z,16.34
2023-09-20T08:04:24.444Z,16.44
2023-09-20T08:06:52.526Z,16.52
2023-09-20T08:09:20.514Z,16.60
2023-09-20T08:11:49.393Z,16.67
2023-09-20T08:14:17.673Z,16.74
2023-09-20T08:17:01.428Z,16.83
2023-09-20T08:19:33.573Z,16.94
2023-09-20T08:22:01.778Z,17.08
2023-09-20T08:24:49.596Z,17.19
2023-09-20T08:27:35.956Z,17.33
2023-09-20T08:30:22.482Z,17.46
2023-09-20T08:33:09.095Z,17.55
2023-09-20T08:35:55.629Z,17.64
2023-09-20T08:38:42.718Z,17.69
2023-09-20T08:41:29.965Z,17.77
2023-09-20T08:44:17.065Z,17.84
2023-09-20T08:47:05.575Z,17.90
2023-09-20T08:49:52.581Z,17.98
2023-09-20T08:52:41.609Z,18.07
2023-09-20T08:55:30.092Z,18.12
2023-09-20T08:58:18.179Z,18.13
2023-09-20T09:00:49.080Z,18.20
2023-09-20T09:03:18.318Z,18.29
2023-09-20T09:05:46.348Z,18.37
2023-09-20T09:08:16.033Z,18.46
2023-09-20T09:10:44.002Z,18.52
2023-09-20T09:13:11.954Z,18.61
2023-09-20T09:15:40.120Z,18.67
2023-09-20T09:18:16.884Z,18.74
2023-09-20T09:20:50.165Z,18.77
2023-09-20T09:23:34.131Z,18.80
2023-09-20T09:26:02.086Z,18.86
2023-09-20T09:28:32.292Z,18.92
2023-09-20T09:31:00.433Z,18.96
2023-09-20T09:33:29.595Z,19.00
2023-09-20T09:35:57.664Z,19.06
2023-09-20T09:38:25.930Z,19.07
2023-09-20T09:41:04.178Z,19.11
2023-09-20T09:43:32.450Z,19.13
2023-09-20T09:46:11.714Z,19.14
2023-09-20T09:48:40.180Z,19.20
2023-09-20T09:51:09.161Z,19.24
2023-09-20T09:53:41.753Z,19.29
2023-09-20T09:56:09.723Z,19.32
2023-09-20T09:58:37.839Z,19.37
2023-09-20T10:01:08.889Z,19.42
2023-09-20T10:03:39.255Z,19.46
2023-09-20T10:06:18.212Z,19.51
2023-09-20T10:08:47.239Z,19.55
2023-09-20T10:11:16.496Z,19.58
2023-09-20T10:13:46.971Z,19.61
2023-09-20T10:16:15.332Z,19.62
2023-09-20T10:19:00.130Z,19.66
2023-09-20T10:21:34.252Z,19.69
2023-09-20T10:24:10.298Z,19.70
2023-09-20T10:26:42.581Z,19.78
2023-09-20T10:29:28.521Z,19.83
2023-09-20T10:32:17.040Z,19.90
2023-09-20T10:35:25.300Z,19.97
2023-09-20T10:38:10.466Z,20.04
2023-09-20T10:40:51.641Z,20.10
2023-09-20T10:43:27.768Z,20.14
2023-09-20T10:45:56.966Z,20.20
2023-09-20T10:48:30.356Z,20.25
2023-09-20T10:51:01.961Z,20.27
2023-09-20T10:53:49.688Z,20.31
2023-09-20T10:56:55.001Z,20.33
2023-09-20T10:59:24.546Z,20.40
2023-09-20T11:01:58.926Z,20.46
2023-09-20T11:04:27.598Z,20.50
2023-09-20T11:06:57.588Z,20.57
2023-09-20T11:09:27.196Z,20.66
2023-09-20T11:11:55.693Z,20.71
2023-09-20T11:14:26.508Z,20.76
2023-09-20T11:16:54.514Z,20.83
2023-09-20T11:19:22.497Z,20.88
2023-09-20T11:21:51.832Z,20.94
2023-09-20T11:24:22.034Z,21.00
2023-09-20T11:26:50.116Z,21.05
2023-09-20T11:29:19.301Z,21.12
2023-09-20T11:31:47.676Z,21.17
2023-09-20T11:34:15.676Z,21.26
2023-09-20T11:36:45.591Z,21.36
2023-09-20T11:39:25.400Z,21.46
2023-09-20T11:41:53.330Z,21.56
2023-09-20T11:44:23.073Z,21.64
2023-09-20T11:46:58.935Z,21.69
2023-09-20T11:49:30.413Z,21.80
2023-09-20T11:52:01.534Z,21.88
2023-09-20T11:54:37.675Z,21.95
2023-09-20T11:57:06.173Z,22.03
2023-09-20T11:59:43.871Z,22.12
2023-09-20T12:02:14.717Z,22.21
2023-09-20T12:04:42.771Z,22.27
2023-09-20T12:07:11.017Z,22.33
2023-09-20T12:09:39.612Z,22.38
2023-09-20T12:12:08.032Z,22.41
2023-09-20T12:14:37.406Z,22.44
2023-09-20T12:17:06.668Z,22.51
2023-09-20T12:19:35.238Z,22.55
2023-09-20T12:22:06.069Z,22.58
2023-09-20T12:24:34.035Z,22.61
2023-09-20T12:27:02.096Z,22.62
2023-09-20T12:29:30.473Z,22.61
2023-09-20T12:31:58.777Z,22.62
2023-09-20T12:34:27.528Z,22.65
2023-09-20T12:36:56.036Z,22.70
2023-09-20T12:39:24.150Z,22.74
2023-09-20T12:41:52.163Z,22.75
2023-09-20T12:44:20.246Z,22.78
2023-09-20T12:46:49.836Z,22.82
2023-09-20T12:49:17.857Z,22.85
2023-09-20T12:51:45.974Z,22.86
2023-09-20T12:54:13.953Z,22.87
2023-09-20T12:56:43.467Z,22.87
2023-09-20T12:59:15.807Z,22.86
2023-09-20T13:01:43.813Z,22.85
2023-09-20T13:04:13.041Z,22.83
2023-09-20T13:06:41.168Z,22.81
2023-09-20T13:09:09.211Z,22.77
2023-09-20T13:11:37.156Z,22.72
2023-09-20T13:14:05.249Z,22.67
2023-09-20T13:16:33.206Z,22.64
2023-09-20T13:19:01.544Z,22.59
2023-09-20T13:21:29.408Z,22.57
2023-09-20T13:24:01.666Z,22.58
2023-09-20T13:26:30.214Z,22.58
2023-09-20T13:28:58.344Z,22.58
2023-09-20T13:31:26.268Z,22.56
2023-09-20T13:33:54.329Z,22.54
2023-09-20T13:36:23.418Z,22.51
2023-09-20T13:38:52.061Z,22.50
2023-09-20T13:41:20.509Z,22.49
2023-09-20T13:43:48.450Z,22.48
2023-09-20T13:46:17.047Z,22.47
2023-09-20T13:48:46.340Z,22.41
2023-09-20T13:51:19.122Z,22.35
2023-09-20T13:53:48.250Z,22.27
2023-09-20T13:56:16.256Z,22.23
2023-09-20T13:58:45.082Z,22.20
2023-09-20T14:01:13.150Z,22.22
2023-09-20T14:03:41.542Z,22.23
2023-09-20T14:06:10.179Z,22.23
2023-09-20T14:08:38.253Z,22.23
2023-09-20T14:11:09.235Z,22.25
2023-09-20T14:13:37.278Z,22.26
2023-09-20T14:16:05.280Z,22.28
2023-09-20T14:18:33.290Z,22.27
2023-09-20T14:21:04.625Z,22.31
2023-09-20T14:23:32.827Z,22.29
2023-09-20T14:26:00.813Z,22.31
2023-09-20T14:28:28.799Z,22.33
2023-09-20T14:30:56.782Z,22.33
2023-09-20T14:33:24.796Z,22.31
2023-09-20T14:35:58.686Z,22.33
2023-09-20T14:38:28.275Z,22.31
2023-09-20T14:40:57.089Z,22.33
2023-09-20T14:43:25.117Z,22.30
2023-09-20T14:45:53.094Z,22.28
2023-09-20T14:48:21.089Z,22.27
2023-09-20T14:50:49.167Z,22.27
2023-09-20T14:53:20.818Z,22.29
2023-09-20T14:55:49.671Z,22.30
2023-09-20T14:58:20.459Z,22.28
2023-09-20T15:00:51.849Z,22.28
2023-09-20T15:03:19.948Z,22.26
2023-09-20T15:05:48.048Z,22.28
2023-09-20T15:08:16.043Z,22.29
2023-09-20T15:10:45.674Z,22.30
2023-09-20T15:13:13.733Z,22.29
2023-09-20T15:15:44.509Z,22.28
2023-09-20T15:18:12.564Z,22.29
2023-09-20T15:20:45.176Z,22.29
2023-09-20T15:23:13.201Z,22.30
2023-09-20T15:25:42.200Z,22.32
2023-09-20T15:28:10.781Z,22.34
2023-09-20T15:30:42.464Z,22.34
2023-09-20T15:33:11.588Z,22.34
2023-09-20T15:35:39.639Z,22.36
2023-09-20T15:38:10.393Z,22.39
2023-09-20T15:40:38.421Z,22.39
2023-09-20T15:43:08.840Z,22.41
2023-09-20T15:45:36.890Z,22.43
2023-09-20T15:48:05.164Z,22.43
2023-09-20T15:50:36.230Z,22.47
2023-09-20T15:53:04.569Z,22.46
2023-09-20T15:55:32.629Z,22.47
2023-09-20T15:58:00.813Z,22.45
2023-09-20T16:00:28.760Z,22.48
2023-09-20T16:02:57.487Z,22.49
2023-09-20T16:05:25.565Z,22.51
2023-09-20T16:07:53.619Z,22.53
2023-09-20T16:10:22.224Z,22.54
2023-09-20T16:12:50.300Z,22.55
2023-09-20T16:15:19.095Z,22.57
2023-09-20T16:17:48.148Z,22.58
2023-09-20T16:20:19.486Z,22.59
2023-09-20T16:22:48.877Z,22.60
2023-09-20T16:25:17.007Z,22.61
2023-09-20T16:27:47.074Z,22.61
2023-09-20T16:30:16.916Z,22.60
2023-09-20T16:32:46.316Z,22.56
2023-09-20T16:35:16.529Z,22.52
2023-09-20T16:37:45.597Z,22.48
2023-09-20T16:40:14.844Z,22.42
2023-09-20T16:42:46.126Z,22.36
2023-09-20T16:45:15.620Z,22.29
2023-09-20T16:47:44.885Z,22.25
2023-09-20T16:50:13.652Z,22.16
2023-09-20T16:52:42.393Z,22.11
2023-09-20T16:55:12.188Z,22.05
2023-09-20T16:57:40.911Z,22.00
2023-09-20T17:00:13.765Z,21.96
2023-09-20T17:02:42.205Z,21.93
2023-09-20T17:05:11.304Z,21.86
2023-09-20T17:07:39.390Z,21.81
2023-09-20T17:10:08.265Z,21.76
2023-09-20T17:12:36.637Z,21.71
2023-09-20T17:15:06.003Z,21.68
2023-09-20T17:17:34.169Z,21.65
2023-09-20T17:20:03.949Z,21.61
2023-09-20T17:22:32.996Z,21.58
2023-09-20T17:25:01.096Z,21.54
2023-09-20T17:27:31.049Z,21.51
2023-09-20T17:29:59.717Z,21.46
2023-09-20T17:32:27.864Z,21.42
2023-09-20T17:35:01.827Z,21.39
2023-09-20T17:37:30.513Z,21.34
2023-09-20T17:39:58.475Z,21.30
2023-09-20T17:42:27.747Z,21.26
2023-09-20T17:44:58.627Z,21.21
2023-09-20T17:47:26.670Z,21.17
2023-09-20T17:49:55.097Z,21.12
2023-09-20T17:52:30.247Z,21.07
2023-09-20T17:54:59.625Z,21.02
2023-09-20T17:59:56.095Z,20.91
2023-09-20T18:02:26.674Z,20.86
2023-09-20T18:04:54.893Z,20.80
2023-09-20T18:07:25.432Z,20.76
2023-09-20T18:09:53.506Z,20.70
2023-09-20T18:12:21.427Z,20.67
2023-09-20T18:14:51.185Z,20.62
2023-09-20T18:17:25.013Z,20.58
2023-09-20T18:19:58.650Z,20.53
2023-09-20T18:22:26.704Z,20.47
2023-09-20T18:24:56.544Z,20.43
2023-09-20T18:27:24.747Z,20.35
2023-09-20T18:29:54.778Z,20.36
2023-09-20T18:32:23.406Z,20.32
2023-09-20T18:34:51.865Z,20.27
2023-09-20T18:37:20.526Z,20.24
2023-09-20T18:39:48.504Z,20.21
2023-09-20T18:42:17.132Z,20.17
2023-09-20T18:44:47.858Z,20.13
2023-09-20T18:47:16.055Z,20.08
2023-09-20T18:49:47.406Z,20.01
2023-09-20T18:52:16.663Z,19.98
2023-09-20T18:54:47.536Z,19.91
2023-09-20T18:57:15.522Z,19.85
2023-09-20T18:59:46.317Z,19.79
2023-09-20T19:02:14.308Z,19.73
2023-09-20T19:04:43.606Z,19.69
2023-09-20T19:07:13.836Z,19.63
2023-09-20T19:09:42.005Z,19.57
2023-09-20T19:12:13.545Z,19.51
2023-09-20T19:14:43.165Z,19.46
2023-09-20T19:17:11.186Z,19.39
2023-09-20T19:19:40.826Z,19.34
2023-09-20T19:22:08.931Z,19.28
2023-09-20T19:24:39.728Z,19.21
2023-09-20T19:27:07.760Z,19.17
2023-09-20T19:29:37.076Z,19.10
2023-09-20T19:32:05.316Z,19.06
2023-09-20T19:34:35.602Z,19.01
2023-09-20T19:37:03.613Z,18.95
2023-09-20T19:39:31.593Z,18.92
2023-09-20T19:41:59.619Z,18.88
2023-09-20T19:44:33.225Z,18.85
2023-09-20T19:47:01.308Z,18.80
2023-09-20T19:49:31.772Z,18.77
2023-09-20T19:51:59.746Z,18.72
2023-09-20T19:54:27.897Z,18.70
2023-09-20T19:56:55.835Z,18.65
2023-09-20T19:59:23.929Z,18.62
2023-09-20T20:01:53.737Z,18.56
2023-09-20T20:04:21.864Z,18.52
2023-09-20T20:06:50.482Z,18.48
2023-09-20T20:09:18.597Z,18.43
2023-09-20T20:11:47.664Z,18.41
2023-09-20T20:14:15.663Z,18.35
2023-09-20T20:16:43.766Z,18.29
2023-09-20T20:19:12.155Z,18.27
2023-09-20T20:21:40.172Z,18.23
2023-09-20T20:24:09.883Z,18.19
2023-09-20T20:26:38.191Z,18.14
2023-09-20T20:29:15.461Z,18.10
2023-09-20T20:31:45.248Z,18.06
2023-09-20T20:34:13.237Z,18.00
2023-09-20T20:36:41.309Z,17.98
2023-09-20T20:39:18.452Z,17.94
2023-09-20T20:41:50.284Z,17.89
2023-09-20T20:44:18.631Z,17.88
2023-09-20T20:46:47.039Z,17.85
2023-09-20T20:49:16.430Z,17.82
2023-09-20T20:51:46.221Z,17.78
2023-09-20T20:54:14.279Z,17.70
2023-09-20T20:56:42.239Z,17.69
2023-09-20T20:59:17.242Z,17.69
2023-09-20T21:01:45.289Z,17.68
2023-09-20T21:04:13.285Z,17.66
2023-09-20T21:06:41.388Z,17.66
2023-09-20T21:09:09.432Z,17.61
2023-09-20T21:11:37.591Z,17.60
2023-09-20T21:14:10.779Z,17.60
2023-09-20T21:16:38.863Z,17.59
2023-09-20T21:19:06.918Z,17.57
2023-09-20T21:21:40.637Z,17.56
2023-09-20T21:24:11.633Z,17.56
2023-09-20T21:26:39.812Z,17.53
2023-09-20T21:29:09.073Z,17.55
2023-09-20T21:31:42.169Z,17.56
2023-09-20T21:34:10.621Z,17.55
2023-09-20T21:36:38.614Z,17.53
2023-09-20T21:39:06.920Z,17.53
2023-09-20T21:41:35.298Z,17.53
2023-09-20T21:44:03.285Z,17.51
2023-09-20T21:46:31.281Z,17.51
2023-09-20T21:48:59.335Z,17.52
2023-09-20T21:51:27.274Z,17.52
2023-09-20T21:53:55.228Z,17.49
2023-09-20T21:56:23.158Z,17.49
2023-09-20T21:58:51.074Z,17.50
2023-09-20T22:01:19.010Z,17.52
2023-09-20T22:03:47.073Z,17.51
2023-09-20T22:06:15.650Z,17.50
2023-09-20T22:08:44.267Z,17.49
2023-09-20T22:11:15.168Z,17.50
2023-09-20T22:13:43.687Z,17.49
2023-09-20T22:16:11.779Z,17.51
2023-09-20T22:18:41.698Z,17.51
2023-09-20T22:21:14.509Z,17.52
2023-09-20T22:23:42.704Z,17.53
2023-09-20T22:26:13.548Z,17.53
2023-09-20T22:28:41.922Z,17.54
2023-09-20T22:31:19.460Z,17.54
2023-09-20T22:33:47.719Z,17.55
2023-09-20T22:36:16.237Z,17.56
2023-09-20T22:38:46.555Z,17.56
2023-09-20T22:41:17.831Z,17.56
2023-09-20T22:43:47.467Z,17.58
2023-09-20T22:46:17.868Z,17.58
2023-09-20T22:48:46.420Z,17.59
2023-09-20T22:51:14.766Z,17.60
2023-09-20T22:53:45.967Z,17.58
2023-09-20T22:56:14.703Z,17.58
2023-09-20T22:58:43.515Z,17.56
2023-09-20T23:01:12.048Z,17.55
2023-09-20T23:03:41.229Z,17.55
2023-09-20T23:06:09.342Z,17.54
2023-09-20T23:08:38.037Z,17.54
2023-09-20T23:11:11.768Z,17.52
2023-09-20T23:13:41.418Z,17.52
2023-09-20T23:16:18.107Z,17.52
2023-09-20T23:18:47.960Z,17.54
2023-09-20T23:21:18.638Z,17.54
2023-09-20T23:23:50.143Z,17.54
2023-09-20T23:26:18.854Z,17.51
2023-09-20T23:28:46.943Z,17.51
2023-09-20T23:31:18.297Z,17.52
2023-09-20T23:33:48.545Z,17.52
2023-09-20T23:36:17.567Z,17.51
2023-09-20T23:38:46.420Z,17.49
2023-09-20T23:41:17.225Z,17.48
2023-09-20T23:43:49.554Z,17.47
2023-09-20T23:46:23.183Z,17.46
2023-09-20T23:48:52.743Z,17.44
2023-09-20T23:51:21.746Z,17.43
2023-09-20T23:53:51.027Z,17.41
2023-09-20T23:56:19.709Z,17.40
2023-09-20T23:58:47.960Z,17.36
